Latest Coastal Weather Observations for Cape Ferguson

IDQ60701

Issued at 12:25 pm EST Sunday 23 November 2014 (issued every 10 minutes, with the page automatically refreshed every 10 minutes)

About coastal observations | Map of coastal stations | Coastal observations for QLD | Marine services | Other Formats
Station Details ID: 032182 Name: CAPE FERGUSON NTC AWS Lat: -19.28 Lon: 147.06 Height: 0.0 m
Data from the previous 72 hours. | See also: Recent months for locations in Queensland
Date/Time
EST
Temp

°C
Wind Pressure Rain
since 9am
mm
Weather Cloud Vis
km
Sea
Height
m
Swell
Dir
 
Speed
knots
Gust
knots
hPa Trend Height
m
Period
s
Dir
23/12:00pm 27.2 E 10 12 1014.6 - - - - - - - - -
23/11:30am 27.2 E 10 13 1015.0 - - - - - - - - -
23/11:00am 27.3 E 9 11 1015.2 - - - - - - - - -
23/10:30am 27.0 ENE 8 11 1015.4 - - - - - - - - -
23/10:00am 27.0 ENE 8 10 1015.6 - - - - - - - - -
23/09:30am 26.9 E 8 9 1015.6 - - - - - - - - -
23/09:00am 26.9 E 9 11 1015.4 - - - - - - - - -
23/08:30am 26.8 ENE 8 11 1015.4 - - - - - - - - -
23/08:00am 26.9 ENE 8 9 1015.1 - - - - - - - - -
23/07:30am 27.0 ENE 9 11 1015.0 - - - - - - - - -
23/07:00am 26.8 E 8 12 1014.6 - - - - - - - - -
23/06:30am 26.8 E 8 10 1014.1 - - - - - - - - -
23/06:00am 26.7 ENE 8 10 1013.7 - - - - - - - - -
23/05:30am 26.5 ENE 8 10 1013.3 - - - - - - - - -
23/05:00am 26.6 ENE 6 9 1013.0 - - - - - - - - -
23/04:30am 26.5 ENE 7 9 1012.8 - - - - - - - - -
23/04:00am 26.6 ENE 5 9 1012.7 - - - - - - - - -
23/03:30am 26.5 ENE 7 11 1012.5 - - - - - - - - -
23/03:00am 26.5 ENE 8 13 1012.5 - - - - - - - - -
23/02:30am 26.7 ENE 9 12 1012.7 - - - - - - - - -
23/02:00am 26.7 ENE 7 11 1012.8 - - - - - - - - -
23/01:30am 26.7 ENE 6 12 1013.0 - - - - - - - - -
23/01:00am 26.8 ENE 7 12 1013.3 - - - - - - - - -
23/12:30am 26.8 ENE 7 12 1013.9 - - - - - - - - -
23/12:00am 26.9 ENE 8 12 1014.2 - - - - - - - - -
 
Date/Time
EST
Temp

°C
Wind Pressure Rain
since 9am
mm
Weather Cloud Vis
km
Sea
Height
m
Swell
Dir
 
Speed
knots
Gust
knots
hPa Trend Height
m
Period
s
Dir
22/11:30pm 26.9 ENE 6 11 1014.1 - - - - - - - - -
22/11:00pm 26.9 ENE 6 12 1014.3 - - - - - - - - -
22/10:30pm 26.9 ENE 7 12 1014.4 - - - - - - - - -
22/10:00pm 26.9 ENE 6 10 1014.1 - - - - - - - - -
22/09:30pm 26.9 ENE 7 11 1013.9 - - - - - - - - -
22/09:00pm 26.9 ENE 5 10 1013.6 - - - - - - - - -
22/08:30pm 26.9 ENE 5 12 1013.3 - - - - - - - - -
22/08:00pm 27.0 ENE 6 11 1012.9 - - - - - - - - -
22/07:30pm 26.9 ENE 5 10 1012.6 - - - - - - - - -
22/07:00pm 27.1 ENE 5 10 1012.2 - - - - - - - - -
22/06:30pm 27.2 ENE 6 12 1012.0 - - - - - - - - -
22/06:00pm 27.4 NE 5 11 1012.0 - - - - - - - - -
22/05:30pm 27.5 ENE 5 11 1012.0 - - - - - - - - -
22/05:00pm 27.3 ENE 6 11 1011.7 - - - - - - - - -
22/04:30pm 27.5 ENE 7 13 1011.6 - - - - - - - - -
22/04:00pm 27.5 ENE 7 14 1011.6 - - - - - - - - -
22/03:30pm 27.7 ENE 6 12 1011.5 - - - - - - - - -
22/03:00pm 27.6 ENE 7 14 1011.8 - - - - - - - - -
22/02:30pm 27.7 NE 6 13 1012.1 - - - - - - - - -
22/02:00pm 27.6 ENE 7 12 1012.4 - - - - - - - - -
22/01:30pm 27.7 ENE 7 13 1012.8 - - - - - - - - -
22/01:00pm 27.9 ENE 7 12 1013.2 - - - - - - - - -
22/12:30pm 27.5 ENE 6 9 1013.4 - - - - - - - - -
22/12:00pm 27.3 ENE 5 10 1013.8 - - - - - - - - -
22/11:30am 27.7 ENE 5 9 1014.0 - - - - - - - - -
22/11:00am 27.8 ENE 4 8 1014.3 - - - - - - - - -
22/10:30am 27.5 ENE 5 10 1014.6 - - - - - - - - -
22/10:00am 27.3 ENE 6 10 1014.8 - - - - - - - - -
22/09:30am 27.2 ENE 5 8 1014.7 - - - - - - - - -
22/09:00am 27.3 ENE 6 9 1014.6 - - - - - - - - -
22/08:30am 27.4 ENE 4 9 1014.4 - - - - - - - - -
22/08:00am 27.2 ENE 5 9 1014.1 - - - - - - - - -
22/07:30am 27.2 ENE 5 9 1013.9 - - - - - - - - -
22/07:00am 27.5 E 2 6 1013.8 - - - - - - - - -
22/06:30am 27.0 W 2 6 1013.5 - - - - - - - - -
22/06:00am 26.6 ESE 2 5 1013.4 - - - - - - - - -
22/05:30am 26.4 ENE 3 8 1013.0 - - - - - - - - -
22/05:00am 26.5 SW 2 5 1012.9 - - - - - - - - -
22/04:30am 26.3 WNW 3 8 1012.7 - - - - - - - - -
22/04:00am 26.5 SE 3 7 1012.3 - - - - - - - - -
22/03:30am 26.5 WSW 2 4 1012.3 - - - - - - - - -
22/03:00am 26.5 W 2 7 1012.3 - - - - - - - - -
22/02:30am 26.4 WSW 2 4 1012.0 - - - - - - - - -
22/02:00am 26.5 ENE 2 7 1012.0 - - - - - - - - -
22/01:30am 26.5 ENE 4 9 1012.2 - - - - - - - - -
22/01:00am 26.6 E 3 7 1012.6 - - - - - - - - -
22/12:30am 26.6 WNW 4 8 1013.2 - - - - - - - - -
22/12:00am 26.7 ENE 4 9 1013.1 - - - - - - - - -
 
Date/Time
EST
Temp

°C
Wind Pressure Rain
since 9am
mm
Weather Cloud Vis
km
Sea
Height
m
Swell
Dir
 
Speed
knots
Gust
knots
hPa Trend Height
m
Period
s
Dir
21/11:30pm 26.8 E 5 10 1013.2 - - - - - - - - -
21/11:00pm 26.8 ENE 4 9 1013.5 - - - - - - - - -
21/10:30pm 26.8 ENE 5 11 1013.7 - - - - - - - - -
21/10:00pm 26.8 ENE 5 11 1013.9 - - - - - - - - -
21/09:30pm 26.8 ENE 4 11 1013.6 - - - - - - - - -
21/09:00pm 26.8 ENE 6 10 1013.6 - - - - - - - - -
21/08:30pm 26.8 ENE 6 10 1013.5 - - - - - - - - -
21/08:00pm 26.8 ENE 6 12 1013.2 - - - - - - - - -
21/07:30pm 26.7 ENE 7 11 1012.7 - - - - - - - - -
21/07:00pm 26.6 ENE 7 10 1012.2 - - - - - - - - -
21/06:30pm 26.6 ENE 9 12 1011.9 - - - - - - - - -
21/06:00pm 26.8 ENE 8 13 1011.5 - - - - - - - - -
21/05:30pm 27.0 ENE 7 13 1011.4 - - - - - - - - -
21/05:00pm 27.1 ENE 7 11 1011.2 - - - - - - - - -
21/04:30pm 27.3 NE 6 12 1011.0 - - - - - - - - -
21/04:00pm 27.3 ENE 6 12 1011.2 - - - - - - - - -
21/03:30pm 27.7 ENE 6 12 1011.4 - - - - - - - - -
21/03:00pm 27.3 NE 6 11 1011.7 - - - - - - - - -
21/02:30pm 27.5 NE 5 11 1012.0 - - - - - - - - -
21/02:00pm 27.6 NE 5 10 1012.6 - - - - - - - - -
21/01:30pm 27.8 NNE 4 9 1013.0 - - - - - - - - -
21/01:00pm 26.9 ENE 6 10 1013.5 - - - - - - - - -
21/12:30pm 27.0 ENE 5 9 1013.7 - - - - - - - - -
21/12:00pm 26.7 E 5 8 1014.2 - - - - - - - - -
21/11:30am 27.2 ENE 4 9 1014.6 - - - - - - - - -
21/11:00am 27.7 NE 4 9 1014.3 - - - - - - - - -
21/10:30am 27.1 NE 5 7 1014.8 - - - - - - - - -
21/10:00am 26.7 ENE 4 7 1015.4 - - - - - - - - -
21/09:30am 26.7 ENE 5 7 1015.6 - - - - - - - - -
21/09:00am 26.7 ENE 5 8 1015.6 - - - - - - - - -
21/08:30am 27.2 ENE 4 7 1015.5 - - - - - - - - -
21/08:00am 26.7 ENE 5 8 1015.5 - - - - - - - - -
21/07:30am 26.6 NE 5 9 1015.0 - - - - - - - - -
21/07:00am 26.6 ENE 5 10 1014.6 - - - - - - - - -
21/06:30am 26.3 ENE 6 12 1014.2 - - - - - - - - -
21/06:00am 26.2 ENE 7 14 1013.9 - - - - - - - - -
21/05:30am 26.1 ENE 6 12 1013.7 - - - - - - - - -
21/05:00am 26.1 ENE 6 11 1013.6 - - - - - - - - -
21/04:30am 26.0 ENE 5 10 1013.5 - - - - - - - - -
21/04:00am 26.1 ENE 7 13 1013.2 - - - - - - - - -
21/03:30am 26.1 ENE 8 13 1013.0 - - - - - - - - -
21/03:00am 26.1 ENE 9 15 1013.0 - - - - - - - - -
21/02:30am 26.2 ENE 11 15 1013.0 - - - - - - - - -
21/02:00am 26.2 ENE 10 15 1012.9 - - - - - - - - -
21/01:30am 26.2 ENE 6 14 1012.9 - - - - - - - - -
21/01:00am 26.2 ENE 8 15 1013.4 - - - - - - - - -
21/12:30am 26.3 ENE 8 12 1013.6 - - - - - - - - -
21/12:00am 26.3 ENE 10 15 1014.0 - - - - - - - - -
 
Date/Time
EST
Temp

°C
Wind Pressure Rain
since 9am
mm
Weather Cloud Vis
km
Sea
Height
m
Swell
Dir
 
Speed
knots
Gust
knots
hPa Trend Height
m
Period
s
Dir
20/11:30pm 26.3 ENE 11 15 1014.2 - - - - - - - - -
20/11:00pm 26.5 ENE 11 13 1014.6 - - - - - - - - -
20/10:30pm 26.5 ENE 9 12 1014.7 - - - - - - - - -
20/10:00pm 26.6 ENE 7 11 1014.6 - - - - - - - - -
20/09:30pm 26.6 ENE 7 11 1014.4 - - - - - - - - -
20/09:00pm 26.5 ENE 9 12 1014.2 - - - - - - - - -
20/08:30pm 26.5 ENE 9 15 1013.8 - - - - - - - - -
20/08:00pm 26.8 ENE 8 13 1013.4 - - - - - - - - -
20/07:30pm 26.6 ENE 8 14 1013.1 - - - - - - - - -
20/07:00pm 26.7 ENE 7 12 1012.7 - - - - - - - - -
20/06:30pm 26.8 NE 6 11 1012.4 - - - - - - - - -
20/06:00pm 27.0 ENE 6 12 1012.2 - - - - - - - - -
20/05:30pm 27.1 ENE 5 12 1011.9 - - - - - - - - -
20/05:00pm 27.3 ENE 7 13 1011.7 - - - - - - - - -
20/04:30pm 27.3 ENE 7 13 1011.4 - - - - - - - - -
20/04:00pm 27.5 ENE 5 13 1011.5 - - - - - - - - -
20/03:30pm 27.5 ENE 6 13 1011.7 - - - - - - - - -
20/03:00pm 27.4 ENE 7 13 1012.1 - - - - - - - - -
20/02:30pm 27.8 ENE 7 13 1012.5 - - - - - - - - -
20/02:00pm 27.7 ENE 7 15 1012.7 - - - - - - - - -
20/01:30pm 27.5 ENE 8 15 1013.2 - - - - - - - - -
20/01:00pm 27.6 ENE 7 14 1013.7 - - - - - - - - -
20/12:30pm 27.3 ENE 7 14 1014.3 - - - - - - - - -

Other Formats:

Comma delimited format used in spreadsheet applications
http://www.bom.gov.au/fwo/IDQ60701/IDQ60701.94297.axf

JavaScript Object Notation format (JSON) in row-major order
http://www.bom.gov.au/fwo/IDQ60701/IDQ60701.94297.json